Time;durP1;ratioP1;P1;durP2;ratioP2;P2;SDS_P1;SDS_P2;PMS_P1;PMS_P2;Temp;Humidity;BMP_temperature;BMP_pressure;BME280_temperature;BME280_humidity;BME280_pressure;Samples;Min_cycle;Max_cycle;Signal;HPM_P1;HPM_P2
2023/01/19 00:00:02;;;;;;;9.73;8.82;;;2.80;99.90;;;;;;5049673;28;20043;-59
2023/01/19 00:02:27;;;;;;;;;;;2.80;99.90;;;;;;5033923;28;20061;-60
2023/01/19 00:04:53;;;;;;;11.98;9.35;;;2.80;99.90;;;;;;5047286;28;20384;-60
2023/01/19 00:07:18;;;;;;;15.23;9.70;;;2.80;99.90;;;;;;5048235;28;20040;-60
2023/01/19 00:09:44;;;;;;;11.17;9.67;;;2.80;99.90;;;;;;5049412;28;20061;-57
2023/01/19 00:12:09;;;;;;;12.83;11.53;;;2.80;99.90;;;;;;5050111;28;20041;-60
2023/01/19 00:14:35;;;;;;;10.70;9.43;;;2.80;99.90;;;;;;5048479;28;20037;-59
2023/01/19 00:17:01;;;;;;;11.43;10.23;;;2.80;99.90;;;;;;5048935;28;20049;-57
2023/01/19 00:19:27;;;;;;;11.40;10.17;;;2.70;99.90;;;;;;5048266;28;20045;-59
2023/01/19 00:21:53;;;;;;;9.95;8.90;;;2.70;99.90;;;;;;5049827;28;20115;-60
2023/01/19 00:24:18;;;;;;;13.23;8.87;;;2.70;99.90;;;;;;5047820;28;20061;-57
2023/01/19 00:26:44;;;;;;;9.63;8.67;;;2.70;99.90;;;;;;5049311;28;20125;-57
2023/01/19 00:29:10;;;;;;;8.57;7.77;;;2.70;99.90;;;;;;5049041;28;20029;-57
2023/01/19 00:31:36;;;;;;;;;;;2.70;99.90;;;;;;5049462;28;20033;-56
2023/01/19 00:34:02;;;;;;;5.72;5.15;;;2.70;99.90;;;;;;5048464;28;20297;-58
2023/01/19 00:36:28;;;;;;;;;;;2.70;99.90;;;;;;5049734;28;20417;-57
2023/01/19 00:38:53;;;;;;;7.70;7.00;;;2.70;99.90;;;;;;5048826;28;20003;-58
2023/01/19 00:42:38;;;;;;;8.00;7.20;;;2.70;99.90;;;;;;5049373;28;20033;-57
2023/01/19 00:44:05;;;;;;;8.43;7.55;;;2.60;99.90;;;;;;5048140;28;20041;-58
2023/01/19 00:46:30;;;;;;;9.23;8.30;;;2.60;99.90;;;;;;5049275;28;20091;-56
2023/01/19 00:48:56;;;;;;;8.70;7.83;;;2.60;99.90;;;;;;5048516;28;20464;-57
2023/01/19 00:51:21;;;;;;;9.90;9.00;;;2.60;99.90;;;;;;5049229;28;20115;-57
2023/01/19 00:53:47;;;;;;;9.07;8.27;;;2.50;99.90;;;;;;5047968;28;20041;-57
2023/01/19 00:56:12;;;;;;;10.40;9.40;;;2.50;99.90;;;;;;5049220;28;20037;-58
2023/01/19 00:58:38;;;;;;;10.83;9.43;;;2.40;99.90;;;;;;5048458;28;20036;-57
2023/01/19 01:01:04;;;;;;;13.80;12.47;;;2.40;99.90;;;;;;5049107;28;20049;-56
2023/01/19 01:03:31;;;;;;;14.30;12.90;;;2.30;99.90;;;;;;5048149;28;20432;-58
2023/01/19 01:05:57;;;;;;;16.75;14.98;;;2.20;99.90;;;;;;5048661;28;20037;-57
2023/01/19 01:08:22;;;;;;;16.00;14.50;;;2.20;99.90;;;;;;5048743;28;20107;-56
2023/01/19 01:10:50;;;;;;;18.20;14.97;;;2.10;99.90;;;;;;5048839;28;20494;-56
2023/01/19 01:13:16;;;;;;;17.10;15.40;;;2.10;99.90;;;;;;5048403;28;20068;-57
2023/01/19 01:15:42;;;;;;;19.47;16.73;;;2.10;99.90;;;;;;5047308;28;20502;-57
2023/01/19 01:18:08;;;;;;;14.43;12.93;;;2.10;99.90;;;;;;5048937;28;20072;-57
2023/01/19 01:20:35;;;;;;;20.08;18.00;;;2.10;99.90;;;;;;5048304;28;20076;-57
2023/01/19 01:23:01;;;;;;;19.65;16.17;;;2.00;99.90;;;;;;5048729;28;20055;-57
2023/01/19 01:25:29;;;;;;;17.45;15.25;;;2.10;99.90;;;;;;5048618;28;20076;-58
2023/01/19 01:27:55;;;;;;;17.98;15.82;;;2.10;99.90;;;;;;5048945;28;20094;-56
2023/01/19 01:30:21;;;;;;;20.13;17.13;;;2.00;99.90;;;;;;5048762;28;20485;-57
2023/01/19 01:32:47;;;;;;;19.90;17.75;;;2.00;99.90;;;;;;5048967;28;20394;-57
2023/01/19 01:35:14;;;;;;;18.75;16.40;;;2.00;99.90;;;;;;5049028;28;20044;-57
2023/01/19 01:37:41;;;;;;;20.08;17.98;;;2.00;99.90;;;;;;5051689;28;20044;-58
2023/01/19 01:40:07;;;;;;;21.10;18.27;;;2.00;99.90;;;;;;5052603;28;20095;-57
2023/01/19 01:42:33;;;;;;;23.52;17.50;;;2.00;99.90;;;;;;5052102;28;20048;-57
2023/01/19 01:45:04;;;;;;;21.07;18.73;;;2.00;99.90;;;;;;5051717;28;20029;-57
2023/01/19 01:47:36;;;;;;;23.75;19.20;;;2.00;99.90;;;;;;5051912;28;20272;-57
2023/01/19 01:50:19;;;;;;;22.75;20.25;;;2.10;99.90;;;;;;5050723;28;20248;-58
2023/01/19 01:52:59;;;;;;;24.40;17.50;;;2.10;99.90;;;;;;5051915;28;20426;-56
2023/01/19 01:55:26;;;;;;;18.98;16.92;;;2.10;99.90;;;;;;5051537;28;20083;-57
2023/01/19 01:58:01;;;;;;;21.10;18.00;;;2.10;99.90;;;;;;5051943;28;20041;-56
2023/01/19 02:02:49;;;;;;;24.13;18.05;;;2.10;99.90;;;;;;5051959;28;20045;-58
2023/01/19 02:03:14;;;;;;;20.52;18.05;;;2.10;99.90;;;;;;5051125;28;20159;-56
2023/01/19 02:05:40;;;;;;;26.63;19.85;;;2.10;99.90;;;;;;5051539;28;20510;-57
2023/01/19 02:13:42;;;;;;;22.17;18.60;;;2.20;99.90;;;;;;5050853;28;20048;-57
2023/01/19 02:16:09;;;;;;;22.90;17.38;;;2.20;99.90;;;;;;5051367;28;20517;-58
2023/01/19 02:18:36;;;;;;;20.83;18.58;;;2.20;99.90;;;;;;5051475;28;20398;-57
2023/01/19 02:21:13;;;;;;;;;;;2.20;99.90;;;;;;5051500;28;20613;-58
2023/01/19 02:23:44;;;;;;;20.27;15.47;;;2.20;99.90;;;;;;5050716;28;20297;-57
2023/01/19 02:26:16;;;;;;;22.95;17.08;;;2.20;99.90;;;;;;5051547;28;20049;-57
2023/01/19 02:28:49;;;;;;;19.30;16.55;;;2.20;99.90;;;;;;5051268;28;20055;-56
2023/01/19 02:31:16;;;;;;;23.67;19.88;;;2.30;99.90;;;;;;5051360;28;20033;-58
2023/01/19 02:33:41;;;;;;;;;;;2.30;99.90;;;;;;5050440;28;20053;-56
2023/01/19 02:36:10;;;;;;;22.55;17.67;;;2.30;99.90;;;;;;5051204;28;19935;-58
2023/01/19 02:38:38;;;;;;;24.60;18.60;;;2.30;99.90;;;;;;5051132;28;20040;-58
2023/01/19 02:41:07;;;;;;;24.42;20.23;;;2.30;99.90;;;;;;5051226;28;20517;-57
2023/01/19 02:43:35;;;;;;;25.75;21.17;;;2.30;99.90;;;;;;5049167;28;20084;-57
2023/01/19 02:46:02;;;;;;;29.25;22.40;;;2.40;99.90;;;;;;5050697;28;20422;-58
2023/01/19 02:48:27;;;;;;;29.98;22.80;;;2.30;99.90;;;;;;5050640;28;20025;-58
2023/01/19 02:51:02;;;;;;;26.70;22.10;;;2.40;99.90;;;;;;5051113;28;20044;-56
2023/01/19 02:53:46;;;;;;;30.10;23.40;;;2.30;99.90;;;;;;5030456;28;20038;-58
2023/01/19 02:56:25;;;;;;;29.15;24.05;;;2.30;99.90;;;;;;5032310;28;20080;-58
2023/01/19 02:59:08;;;;;;;28.50;23.05;;;2.30;99.90;;;;;;5049546;28;20052;-56
2023/01/19 03:01:47;;;;;;;29.10;23.25;;;2.30;99.90;;;;;;5050669;28;20037;-57
2023/01/19 03:04:42;;;;;;;30.67;23.67;;;2.40;99.90;;;;;;5049430;28;20036;-58
2023/01/19 03:07:27;;;;;;;32.75;23.60;;;2.30;99.90;;;;;;5049750;28;20970;-58
2023/01/19 03:10:02;;;;;;;32.70;23.45;;;2.40;99.90;;;;;;5050833;28;20514;-56
2023/01/19 03:12:49;;;;;;;30.17;23.67;;;2.40;99.90;;;;;;5050256;28;20040;-57
2023/01/19 03:15:25;;;;;;;29.70;22.17;;;2.40;99.90;;;;;;5049321;28;20041;-57
2023/01/19 03:17:52;;;;;;;28.73;22.33;;;2.40;99.90;;;;;;5050484;28;20047;-57
2023/01/19 03:20:23;;;;;;;27.75;21.80;;;2.40;99.90;;;;;;5051109;28;20040;-55
2023/01/19 03:22:55;;;;;;;27.20;22.00;;;2.40;99.90;;;;;;5050570;28;20444;-58
2023/01/19 03:25:22;;;;;;;30.17;23.20;;;2.40;99.90;;;;;;5050476;28;20051;-56
2023/01/19 03:27:50;;;;;;;25.13;21.58;;;2.50;99.90;;;;;;5049481;28;20040;-57
2023/01/19 03:30:26;;;;;;;30.67;21.48;;;2.50;99.90;;;;;;5050438;28;20044;-57
2023/01/19 03:32:58;;;;;;;26.15;21.52;;;2.40;99.90;;;;;;5050104;28;20049;-57
2023/01/19 03:35:28;;;;;;;26.65;21.10;;;2.50;99.90;;;;;;5049892;28;20456;-56
2023/01/19 03:37:56;;;;;;;28.55;21.58;;;2.50;99.90;;;;;;5050074;28;20098;-56
2023/01/19 03:40:27;;;;;;;27.00;20.80;;;2.50;99.90;;;;;;5049839;28;20112;-57
2023/01/19 03:42:54;;;;;;;26.17;20.95;;;2.40;99.90;;;;;;5048893;28;20041;-58
2023/01/19 03:45:21;;;;;;;27.05;21.95;;;2.50;99.90;;;;;;5044881;28;20456;-58
2023/01/19 03:47:47;;;;;;;23.98;19.80;;;2.50;99.90;;;;;;5049469;28;20429;-55
2023/01/19 03:50:23;;;;;;;23.55;20.10;;;2.50;99.90;;;;;;5049770;28;20041;-57
2023/01/19 03:53:06;;;;;;;24.50;19.13;;;2.50;99.90;;;;;;5049635;28;20067;-57
2023/01/19 03:55:33;;;;;;;24.20;19.80;;;2.50;99.90;;;;;;5049195;28;20052;-57
2023/01/19 03:57:59;;;;;;;22.42;16.73;;;2.50;99.90;;;;;;5049386;28;20041;-57
2023/01/19 04:00:25;;;;;;;20.67;17.67;;;2.50;99.90;;;;;;5049853;28;20073;-57
2023/01/19 04:02:50;;;;;;;21.08;17.85;;;2.50;99.90;;;;;;5049809;28;20487;-58
2023/01/19 04:05:17;;;;;;;18.10;14.38;;;2.50;99.90;;;;;;5048761;28;20167;-58
2023/01/19 04:07:43;;;;;;;19.60;16.00;;;2.50;99.90;;;;;;5049339;28;20041;-56
2023/01/19 04:10:11;;;;;;;17.63;14.43;;;2.50;99.90;;;;;;5049796;28;20045;-58
2023/01/19 04:12:38;;;;;;;16.08;13.38;;;2.50;99.90;;;;;;5049531;28;20556;-58
2023/01/19 04:15:05;;;;;;;17.33;14.38;;;2.40;99.90;;;;;;5048551;28;20032;-58
2023/01/19 04:17:31;;;;;;;15.73;12.65;;;2.50;99.90;;;;;;5048917;28;20473;-57
2023/01/19 04:19:56;;;;;;;14.88;12.15;;;2.40;99.90;;;;;;5048795;28;20041;-58
2023/01/19 04:22:22;;;;;;;13.60;12.10;;;2.50;99.90;;;;;;5050101;28;20559;-57
2023/01/19 04:24:47;;;;;;;14.10;12.63;;;2.40;99.90;;;;;;5048175;28;20029;-57
2023/01/19 04:27:15;;;;;;;11.43;10.20;;;2.40;99.90;;;;;;5049530;28;20287;-56
2023/01/19 04:29:40;;;;;;;11.60;10.40;;;2.40;99.90;;;;;;5049388;28;20041;-58
2023/01/19 04:32:06;;;;;;;11.93;10.73;;;2.40;99.90;;;;;;5049744;28;20267;-58
2023/01/19 04:34:32;;;;;;;11.57;9.13;;;2.40;99.90;;;;;;5047896;28;20044;-57
2023/01/19 04:36:57;;;;;;;10.87;9.73;;;2.40;99.90;;;;;;5049077;28;20411;-57
2023/01/19 04:39:23;;;;;;;12.03;10.50;;;2.40;99.90;;;;;;5049745;28;20032;-57
2023/01/19 04:41:50;;;;;;;13.30;10.17;;;2.40;99.90;;;;;;5049143;28;20041;-57
2023/01/19 04:44:16;;;;;;;11.07;9.93;;;2.40;99.90;;;;;;5049090;28;20052;-58
2023/01/19 04:46:42;;;;;;;12.05;10.82;;;2.30;99.90;;;;;;5048800;28;20056;-56
2023/01/19 04:49:08;;;;;;;11.47;9.83;;;2.30;99.90;;;;;;5048644;28;20041;-57
2023/01/19 04:51:34;;;;;;;;;;;2.30;99.90;;;;;;5048428;28;20055;-57
2023/01/19 04:54:00;;;;;;;12.73;8.90;;;2.30;99.90;;;;;;5047313;28;19999;-58
2023/01/19 04:56:26;;;;;;;11.80;10.23;;;2.30;99.90;;;;;;5047763;28;20033;-57
2023/01/19 04:58:52;;;;;;;15.50;11.75;;;2.30;99.90;;;;;;5048276;28;20090;-57
2023/01/19 05:01:17;;;;;;;11.87;10.20;;;2.30;99.90;;;;;;5048795;28;20033;-58
2023/01/19 05:03:43;;;;;;;14.30;10.93;;;2.30;99.90;;;;;;5047894;28;20095;-56
2023/01/19 05:06:09;;;;;;;13.73;9.03;;;2.30;99.90;;;;;;5049411;28;20033;-56
2023/01/19 05:08:34;;;;;;;15.73;11.53;;;2.30;99.90;;;;;;5048834;28;20045;-57
2023/01/19 05:11:00;;;;;;;15.23;12.33;;;2.30;99.90;;;;;;5051949;28;20044;-58
2023/01/19 05:13:25;;;;;;;12.87;10.57;;;2.30;99.90;;;;;;5052134;28;20120;-57
2023/01/19 05:15:51;;;;;;;20.27;11.90;;;2.40;99.90;;;;;;5052920;28;20033;-57
2023/01/19 05:18:17;;;;;;;14.00;11.43;;;2.40;99.90;;;;;;5052560;28;20045;-56
2023/01/19 05:20:42;;;;;;;15.93;10.45;;;2.40;99.90;;;;;;5052946;28;20068;-58
2023/01/19 05:23:08;;;;;;;16.13;13.00;;;2.50;99.90;;;;;;5052455;28;20124;-57
2023/01/19 05:25:34;;;;;;;16.23;12.53;;;2.50;99.90;;;;;;5052030;28;20044;-57
2023/01/19 05:27:59;;;;;;;14.90;10.47;;;2.50;99.90;;;;;;5052697;28;20600;-58
2023/01/19 05:30:25;;;;;;;14.97;11.77;;;2.50;99.90;;;;;;5052655;28;20041;-57
2023/01/19 05:32:50;;;;;;;22.50;12.00;;;2.50;99.90;;;;;;5052143;28;20045;-59
2023/01/19 05:35:16;;;;;;;14.07;10.20;;;2.50;99.90;;;;;;5050475;28;20190;-58
2023/01/19 05:37:43;;;;;;;15.83;10.60;;;2.50;99.90;;;;;;5051499;28;20202;-58
2023/01/19 05:40:09;;;;;;;14.45;9.25;;;2.50;99.90;;;;;;5051305;28;20638;-57
2023/01/19 05:42:35;;;;;;;12.30;8.82;;;2.60;99.90;;;;;;5052619;28;20310;-58
2023/01/19 05:45:01;;;;;;;14.80;8.07;;;2.60;99.90;;;;;;5051405;28;20033;-58
2023/01/19 05:47:30;;;;;;;14.43;9.73;;;2.70;99.90;;;;;;5051614;28;20049;-57
2023/01/19 05:49:56;;;;;;;18.17;8.77;;;2.70;99.90;;;;;;5052507;28;20037;-56
2023/01/19 05:52:23;;;;;;;14.75;8.32;;;2.70;99.90;;;;;;5052012;28;20543;-58
2023/01/19 05:54:50;;;;;;;19.42;8.70;;;2.80;99.90;;;;;;5051455;28;20041;-58
2023/01/19 05:57:16;;;;;;;18.17;9.00;;;2.80;99.90;;;;;;5051425;28;20112;-56
2023/01/19 05:59:42;;;;;;;14.77;8.95;;;2.90;99.90;;;;;;5051520;28;20063;-56
2023/01/19 06:02:08;;;;;;;15.20;7.50;;;2.90;99.90;;;;;;5051439;28;20041;-58
2023/01/19 06:04:33;;;;;;;14.82;6.65;;;2.90;99.90;;;;;;5051015;28;20112;-57
2023/01/19 06:07:00;;;;;;;15.43;5.63;;;2.90;99.90;;;;;;5051625;28;20052;-56
2023/01/19 06:09:26;;;;;;;18.13;5.70;;;3.00;99.90;;;;;;5052014;28;20072;-57
2023/01/19 06:11:54;;;;;;;13.47;5.47;;;3.10;99.90;;;;;;5050803;28;20076;-57
2023/01/19 06:14:20;;;;;;;11.80;3.97;;;3.10;99.90;;;;;;5050816;28;20036;-58
2023/01/19 06:16:45;;;;;;;12.37;3.67;;;3.10;99.90;;;;;;5051890;28;20073;-57
2023/01/19 06:19:11;;;;;;;7.90;1.90;;;3.10;99.90;;;;;;5051771;28;20037;-57
2023/01/19 06:21:37;;;;;;;7.70;1.57;;;3.10;99.90;;;;;;5051083;28;20038;-55
2023/01/19 06:24:02;;;;;;;10.63;1.30;;;3.20;99.90;;;;;;5050859;28;20045;-58
2023/01/19 06:26:28;;;;;;;4.55;1.85;;;3.10;99.90;;;;;;5051348;28;20283;-57
2023/01/19 06:28:54;;;;;;;6.57;1.15;;;3.20;99.90;;;;;;5050934;28;20080;-58
2023/01/19 06:31:20;;;;;;;7.43;1.20;;;3.20;99.90;;;;;;5050075;28;20356;-57
2023/01/19 06:33:46;;;;;;;6.13;0.83;;;3.20;99.90;;;;;;5050832;28;20045;-57
2023/01/19 06:36:11;;;;;;;6.93;1.05;;;3.20;99.90;;;;;;5051345;28;20041;-58
2023/01/19 06:38:37;;;;;;;5.63;1.13;;;3.20;99.90;;;;;;5051129;28;20041;-56
2023/01/19 06:41:03;;;;;;;5.53;0.40;;;3.20;99.90;;;;;;5050961;28;20533;-58
2023/01/19 06:43:30;;;;;;;7.65;0.90;;;3.20;99.90;;;;;;5049992;28;20169;-57
2023/01/19 06:45:56;;;;;;;5.05;0.90;;;3.10;99.90;;;;;;5051298;28;20368;-56
2023/01/19 06:48:22;;;;;;;2.30;0.65;;;3.10;99.90;;;;;;5050764;28;20391;-57
2023/01/19 06:50:48;;;;;;;4.97;0.47;;;3.10;99.90;;;;;;5051471;28;20044;-57
2023/01/19 06:53:15;;;;;;;4.72;0.50;;;3.10;99.90;;;;;;5050033;28;20144;-58
2023/01/19 06:55:44;;;;;;;3.30;0.40;;;3.10;99.90;;;;;;5051306;28;20080;-57
2023/01/19 06:58:10;;;;;;;5.93;0.60;;;3.10;99.90;;;;;;5050186;28;20044;-57
2023/01/19 07:00:37;;;;;;;3.10;0.50;;;3.10;99.90;;;;;;5051349;28;20037;-58
2023/01/19 07:03:06;;;;;;;5.65;0.70;;;3.10;99.90;;;;;;5049511;28;20033;-57
2023/01/19 07:05:33;;;;;;;6.05;1.35;;;3.00;99.90;;;;;;5050071;28;20052;-57
2023/01/19 07:07:59;;;;;;;7.20;0.50;;;3.00;99.90;;;;;;5050477;28;20048;-58
2023/01/19 07:10:25;;;;;;;3.37;0.50;;;3.00;99.90;;;;;;5046450;28;20037;-55
2023/01/19 07:12:50;;;;;;;3.57;0.40;;;2.90;99.90;;;;;;5049353;28;20413;-58
2023/01/19 07:15:21;;;;;;;5.87;0.40;;;2.90;99.90;;;;;;5035406;28;20296;-56
2023/01/19 07:17:47;;;;;;;4.32;0.52;;;2.80;99.90;;;;;;5032466;28;20117;-58
2023/01/19 07:20:13;;;;;;;3.05;0.73;;;2.80;99.90;;;;;;5050619;28;20554;-58
2023/01/19 07:22:44;;;;;;;8.70;0.70;;;2.70;99.90;;;;;;5050755;28;20122;-57
2023/01/19 07:25:10;;;;;;;4.78;0.40;;;2.70;99.90;;;;;;5049283;28;20060;-58
2023/01/19 07:27:35;;;;;;;6.70;0.70;;;2.70;99.90;;;;;;5050091;28;20045;-56
2023/01/19 07:30:01;;;;;;;3.60;0.60;;;2.70;99.90;;;;;;5050622;28;20452;-56
2023/01/19 07:32:27;;;;;;;6.30;0.40;;;2.80;99.90;;;;;;5049847;28;20045;-58
2023/01/19 07:34:53;;;;;;;;;;;2.80;99.90;;;;;;5050329;28;20071;-56
2023/01/19 07:37:18;;;;;;;9.98;0.90;;;2.80;99.90;;;;;;5049836;28;20364;-57
2023/01/19 07:39:44;;;;;;;8.63;1.30;;;2.90;99.90;;;;;;5048975;28;20072;-58
2023/01/19 07:42:10;;;;;;;6.07;0.93;;;2.90;99.90;;;;;;5050362;28;20029;-57
2023/01/19 07:44:36;;;;;;;14.37;1.33;;;2.90;99.90;;;;;;5048160;28;20033;-57
2023/01/19 07:47:01;;;;;;;11.15;0.95;;;2.90;99.90;;;;;;5049740;28;20033;-57
2023/01/19 07:49:27;;;;;;;10.48;0.82;;;2.90;99.90;;;;;;5049343;28;20100;-58
2023/01/19 07:51:55;;;;;;;8.57;0.70;;;2.90;99.90;;;;;;5046662;28;20045;-58
2023/01/19 07:54:21;;;;;;;7.45;0.80;;;2.90;99.90;;;;;;5047053;28;20059;-58
2023/01/19 07:56:46;;;;;;;17.70;1.77;;;3.00;99.90;;;;;;5049605;28;20485;-57
2023/01/19 07:59:12;;;;;;;12.20;1.77;;;3.00;99.90;;;;;;5048932;28;20056;-57
2023/01/19 08:01:38;;;;;;;10.97;1.03;;;3.00;99.90;;;;;;5049895;28;20465;-56
2023/01/19 08:04:04;;;;;;;11.25;1.30;;;3.10;99.90;;;;;;5048121;28;20116;-56
2023/01/19 08:06:33;;;;;;;7.60;0.98;;;3.10;99.90;;;;;;5049746;28;20098;-56
2023/01/19 08:08:59;;;;;;;15.45;1.35;;;3.20;99.90;;;;;;5048495;28;20095;-56
2023/01/19 08:11:25;;;;;;;13.27;1.57;;;3.20;99.90;;;;;;5050026;28;20044;-57
2023/01/19 08:13:50;;;;;;;5.47;1.20;;;3.20;99.90;;;;;;5047320;28;20048;-56
2023/01/19 08:16:16;;;;;;;10.50;1.10;;;3.20;99.90;;;;;;5049892;28;20067;-56
2023/01/19 08:18:42;;;;;;;16.63;3.33;;;3.20;99.90;;;;;;5049000;28;20044;-57
2023/01/19 08:21:07;;;;;;;19.47;1.57;;;3.20;99.90;;;;;;5049440;28;20418;-56
2023/01/19 08:23:33;;;;;;;26.38;3.03;;;3.20;99.90;;;;;;5047759;28;20044;-56
2023/01/19 08:25:59;;;;;;;12.37;1.67;;;3.20;99.90;;;;;;5049774;28;20112;-56
2023/01/19 08:28:25;;;;;;;13.57;2.70;;;3.20;99.90;;;;;;5049018;28;20033;-57
2023/01/19 08:30:54;;;;;;;16.60;2.00;;;3.10;99.90;;;;;;5049187;28;20451;-58
2023/01/19 08:33:21;;;;;;;7.63;2.78;;;3.10;99.90;;;;;;5048582;28;20049;-56
2023/01/19 08:35:49;;;;;;;17.35;1.40;;;3.10;99.90;;;;;;5048797;28;20091;-54
2023/01/19 08:38:15;;;;;;;14.77;1.92;;;3.10;99.90;;;;;;5048586;28;20037;-55
2023/01/19 08:40:42;;;;;;;13.30;1.65;;;3.10;99.90;;;;;;5049608;28;20040;-56
2023/01/19 08:43:14;;;;;;;11.30;1.17;;;3.10;99.90;;;;;;5048784;28;20517;-57
2023/01/19 08:45:47;;;;;;;11.10;1.92;;;3.10;99.90;;;;;;5053110;28;20482;-57
2023/01/19 08:48:15;;;;;;;14.73;1.45;;;3.20;99.90;;;;;;5053164;28;20464;-56
2023/01/19 08:50:41;;;;;;;14.18;1.75;;;3.30;99.90;;;;;;5052946;28;20077;-54
2023/01/19 08:53:07;;;;;;;25.53;3.77;;;3.40;99.90;;;;;;5052915;28;20080;-57
2023/01/19 08:55:34;;;;;;;9.25;1.10;;;3.40;99.90;;;;;;5053152;28;20099;-58
2023/01/19 08:58:02;;;;;;;16.08;1.67;;;3.50;99.90;;;;;;5053413;28;20492;-55
2023/01/19 09:00:30;;;;;;;18.75;1.83;;;3.60;99.90;;;;;;5053368;28;20405;-57
2023/01/19 09:02:56;;;;;;;7.05;1.58;;;3.60;99.90;;;;;;5052941;28;20486;-58
2023/01/19 09:05:22;;;;;;;9.60;1.23;;;3.70;99.90;;;;;;5046546;28;20401;-55
2023/01/19 09:07:48;;;;;;;7.25;0.93;;;3.80;99.90;;;;;;5052471;28;20036;-52
2023/01/19 09:10:15;;;;;;;7.80;1.35;;;3.90;99.90;;;;;;5053515;28;20040;-56
2023/01/19 09:12:40;;;;;;;5.45;1.02;;;4.00;99.90;;;;;;5053408;28;20049;-52
2023/01/19 09:15:07;;;;;;;11.68;1.13;;;4.30;99.90;;;;;;5051604;28;20043;-54
2023/01/19 09:17:32;;;;;;;12.55;2.10;;;4.60;99.90;;;;;;5051805;28;20090;-54
2023/01/19 09:19:58;;;;;;;12.77;1.57;;;4.80;99.90;;;;;;5052323;28;20048;-56
2023/01/19 09:22:24;;;;;;;9.10;1.73;;;4.90;99.90;;;;;;5052088;28;20045;-58
2023/01/19 09:24:49;;;;;;;17.20;1.63;;;4.90;99.90;;;;;;5032171;28;20426;-56
2023/01/19 09:27:15;;;;;;;3.10;0.80;;;4.90;99.90;;;;;;5045513;28;20080;-57
2023/01/19 09:29:41;;;;;;;14.63;2.77;;;4.90;99.90;;;;;;5052378;28;20553;-58
2023/01/19 09:32:07;;;;;;;13.17;1.93;;;4.80;99.90;;;;;;5052133;28;20095;-58
2023/01/19 09:34:33;;;;;;;9.35;1.20;;;4.80;99.90;;;;;;5051324;28;20048;-55
2023/01/19 09:36:59;;;;;;;26.03;3.47;;;4.70;99.90;;;;;;5052331;28;20037;-55
2023/01/19 09:39:25;;;;;;;14.70;1.10;;;4.60;99.90;;;;;;5052541;28;20044;-58
2023/01/19 09:42:05;;;;;;;13.43;0.95;;;4.60;99.90;;;;;;5052403;28;20040;-58
2023/01/19 09:44:34;;;;;;;7.43;0.95;;;4.60;99.90;;;;;;5051056;28;20033;-57
2023/01/19 09:47:03;;;;;;;13.10;1.10;;;4.50;99.90;;;;;;5036983;28;20036;-56
2023/01/19 09:49:41;;;;;;;23.05;2.78;;;4.50;99.90;;;;;;5050170;28;20433;-57
2023/01/19 09:52:13;;;;;;;12.68;1.23;;;4.50;99.90;;;;;;5051153;28;20041;-58
2023/01/19 09:54:52;;;;;;;13.25;1.55;;;4.50;99.90;;;;;;5049529;28;20037;-56
2023/01/19 09:57:19;;;;;;;9.52;1.20;;;4.40;99.90;;;;;;5048003;28;20408;-53
2023/01/19 09:59:48;;;;;;;;;;;4.50;99.90;;;;;;5050933;28;20041;-57
2023/01/19 10:02:22;;;;;;;9.30;1.45;;;4.60;99.90;;;;;;5050149;28;20709;-58
2023/01/19 10:05:19;;;;;;;10.80;1.20;;;4.90;99.90;;;;;;5049113;28;20032;-59
2023/01/19 10:08:17;;;;;;;10.13;1.58;;;5.40;99.90;;;;;;5049809;28;20045;-57
2023/01/19 10:10:47;;;;;;;15.90;1.63;;;5.80;99.90;;;;;;5049994;28;20132;-56
2023/01/19 10:13:32;;;;;;;11.20;1.30;;;6.00;99.90;;;;;;5047451;28;20095;-59
2023/01/19 10:16:36;;;;;;;7.30;1.42;;;6.00;99.90;;;;;;5051313;28;20047;-56
2023/01/19 10:19:20;;;;;;;15.40;2.05;;;6.00;99.90;;;;;;5028923;28;20079;-57
2023/01/19 10:21:49;;;;;;;11.85;1.70;;;6.20;99.90;;;;;;5029353;28;20542;-56
2023/01/19 10:24:24;;;;;;;7.15;0.90;;;6.70;99.90;;;;;;5027997;28;20100;-57
2023/01/19 10:26:52;;;;;;;6.82;1.27;;;7.60;99.90;;;;;;5028930;28;20048;-58
2023/01/19 10:29:36;;;;;;;14.38;1.45;;;8.80;99.90;;;;;;5028945;28;20049;-58
2023/01/19 10:32:12;;;;;;;12.38;2.17;;;10.20;99.90;;;;;;5029169;28;20450;-58
2023/01/19 10:34:40;;;;;;;11.10;1.85;;;11.20;99.90;;;;;;5027889;28;20052;-56
2023/01/19 10:37:16;;;;;;;11.30;1.02;;;11.90;99.90;;;;;;5028131;28;20550;-59
2023/01/19 10:39:44;;;;;;;4.68;0.70;;;11.90;99.90;;;;;;5029270;28;20040;-59
2023/01/19 10:42:14;;;;;;;10.15;0.60;;;11.60;99.90;;;;;;5012455;28;20045;-59
2023/01/19 10:44:40;;;;;;;7.82;1.42;;;11.40;99.90;;;;;;5027981;28;20125;-58
2023/01/19 10:47:26;;;;;;;13.63;0.90;;;11.70;99.90;;;;;;5028539;28;20037;-59
2023/01/19 10:49:52;;;;;;;8.63;1.00;;;12.30;99.90;;;;;;5041180;28;20132;-56
2023/01/19 10:52:34;;;;;;;14.00;2.35;;;12.80;99.90;;;;;;5051785;28;20084;-57
2023/01/19 10:55:05;;;;;;;8.45;1.33;;;12.80;98.80;;;;;;5050637;28;20052;-58
2023/01/19 10:57:32;;;;;;;7.78;0.88;;;12.90;98.20;;;;;;5050873;28;20080;-59
2023/01/19 10:59:58;;;;;;;10.82;1.85;;;12.70;97.20;;;;;;5051194;28;20383;-57
2023/01/19 11:02:26;;;;;;;7.80;1.48;;;12.80;97.50;;;;;;5066560;28;20122;-57
2023/01/19 11:04:54;;;;;;;11.40;1.30;;;12.90;97.20;;;;;;5050185;28;20033;-59
2023/01/19 11:07:22;;;;;;;8.02;0.82;;;12.90;97.60;;;;;;5049657;28;20080;-57
2023/01/19 11:09:49;;;;;;;9.98;1.00;;;12.90;96.90;;;;;;5051342;28;20437;-55
2023/01/19 11:12:19;;;;;;;;;;;12.60;96.60;;;;;;5051070;28;20094;-58
2023/01/19 11:14:46;;;;;;;8.82;0.68;;;12.60;97.20;;;;;;5050023;28;20385;-59
2023/01/19 11:17:22;;;;;;;13.98;0.88;;;12.40;97.30;;;;;;5050248;28;20037;-56
2023/01/19 11:20:00;;;;;;;8.43;0.93;;;12.10;97.70;;;;;;5050703;28;20037;-59
2023/01/19 11:22:30;;;;;;;13.35;1.67;;;11.90;96.80;;;;;;5050862;28;20047;-57
2023/01/19 11:25:04;;;;;;;16.88;2.45;;;12.10;97.80;;;;;;5049014;28;20084;-58
2023/01/19 11:27:33;;;;;;;10.68;0.80;;;12.20;97.00;;;;;;5050380;28;20403;-59
2023/01/19 11:30:23;;;;;;;9.15;1.05;;;12.30;96.50;;;;;;5050681;28;20036;-59
2023/01/19 11:32:48;;;;;;;9.35;1.33;;;12.60;96.40;;;;;;5050572;28;20044;-57
2023/01/19 11:35:39;;;;;;;7.43;1.50;;;12.60;95.20;;;;;;5048881;28;20041;-59
2023/01/19 11:38:19;;;;;;;11.63;0.90;;;12.30;93.40;;;;;;5049900;28;20041;-59
2023/01/19 11:40:56;;;;;;;8.90;0.93;;;12.40;93.50;;;;;;5050768;28;20033;-60
2023/01/19 11:43:22;;;;;;;;;;;12.40;93.20;;;;;;5049646;28;20041;-61
2023/01/19 11:45:48;;;;;;;5.40;0.73;;;12.20;91.90;;;;;;5049819;28;19931;-58
2023/01/19 11:48:27;;;;;;;6.82;0.52;;;12.00;92.40;;;;;;5049771;28;20037;-61
2023/01/19 11:50:54;;;;;;;5.13;0.50;;;11.80;92.10;;;;;;5050271;28;20435;-58
2023/01/19 11:53:27;;;;;;;5.05;1.02;;;12.20;92.00;;;;;;5048619;28;20414;-62
2023/01/19 11:56:07;;;;;;;6.07;0.95;;;12.30;91.50;;;;;;5043398;28;20040;-58
2023/01/19 11:58:40;;;;;;;7.35;0.57;;;12.40;92.60;;;;;;5048373;28;20037;-56
2023/01/19 12:01:16;;;;;;;6.93;0.55;;;12.60;91.40;;;;;;5047208;28;20039;-58
2023/01/19 12:04:07;;;;;;;5.90;0.40;;;12.40;90.60;;;;;;5046505;28;20037;-58
2023/01/19 12:06:46;;;;;;;5.55;0.50;;;12.10;88.00;;;;;;5044053;28;20102;-58
2023/01/19 12:09:35;;;;;;;5.55;0.50;;;12.40;90.60;;;;;;5047007;28;20037;-59
2023/01/19 12:12:26;;;;;;;4.60;0.40;;;12.60;90.60;;;;;;5045098;28;20124;-57
2023/01/19 12:15:16;;;;;;;8.25;0.60;;;12.90;89.30;;;;;;5047239;28;20033;-56
2023/01/19 12:17:48;;;;;;;10.88;0.75;;;13.20;85.10;;;;;;5043891;28;20079;-58
2023/01/19 12:20:38;;;;;;;7.68;0.60;;;13.80;86.70;;;;;;5048353;28;20033;-57
2023/01/19 12:23:10;;;;;;;6.75;0.73;;;14.30;83.90;;;;;;5045890;28;20651;-54
2023/01/19 12:25:54;;;;;;;5.60;0.68;;;14.30;78.00;;;;;;5048277;28;20089;-57
2023/01/19 12:28:26;;;;;;;4.32;0.82;;;14.30;78.30;;;;;;5047965;28;20040;-56
2023/01/19 12:30:52;;;;;;;4.30;0.73;;;14.20;78.50;;;;;;5047597;28;20079;-57
2023/01/19 12:33:21;;;;;;;7.63;0.90;;;14.50;78.70;;;;;;5044549;28;20446;-58
2023/01/19 12:35:57;;;;;;;3.08;0.60;;;14.50;78.40;;;;;;5047830;28;20080;-57
2023/01/19 12:38:38;;;;;;;2.80;0.35;;;14.80;73.10;;;;;;5046518;28;20494;-55
2023/01/19 12:41:28;;;;;;;7.43;1.15;;;15.40;75.70;;;;;;5048103;28;20462;-55
2023/01/19 12:44:18;;;;;;;7.32;0.50;;;16.10;72.00;;;;;;5047024;28;20421;-57
2023/01/19 12:46:49;;;;;;;4.00;0.57;;;16.20;69.40;;;;;;5046802;28;20041;-56
2023/01/19 12:49:29;;;;;;;6.57;0.40;;;16.40;68.70;;;;;;5044458;28;20036;-54
2023/01/19 12:52:13;;;;;;;2.20;0.45;;;16.50;68.40;;;;;;5046878;28;20071;-55
2023/01/19 12:54:57;;;;;;;5.07;0.52;;;16.10;66.80;;;;;;5046693;28;20103;-54
2023/01/19 12:57:37;;;;;;;6.32;0.43;;;15.20;67.10;;;;;;5042241;28;21066;-55
2023/01/19 13:00:23;;;;;;;3.65;0.75;;;14.30;69.20;;;;;;5044809;28;20029;-52
2023/01/19 13:02:52;;;;;;;5.13;0.40;;;13.50;71.70;;;;;;5041506;28;20050;-53
2023/01/19 13:05:23;;;;;;;9.48;0.80;;;13.70;73.20;;;;;;5043120;28;20033;-56